Time;durP1;ratioP1;P1;durP2;ratioP2;P2;SDS_P1;SDS_P2;PMS_P1;PMS_P2;Temp;Humidity;BMP_temperature;BMP_pressure;BME280_temperature;BME280_humidity;BME280_pressure;Samples;Min_cycle;Max_cycle;Signal;HPM_P1;HPM_P2
2023/02/27 00:00:21;;;;;;;63.10;57.85;;;;;;;7.24;100.00;100447.50;5032848;28;20122;-78
2023/02/27 00:02:49;;;;;;;64.05;58.22;;;;;;;7.11;100.00;100449.00;5032674;28;20427;-78
2023/02/27 00:05:16;;;;;;;53.30;47.53;;;;;;;7.28;100.00;100460.13;5032726;28;20502;-77
2023/02/27 00:07:43;;;;;;;49.92;44.78;;;;;;;7.19;100.00;100453.31;5032541;28;20052;-77
2023/02/27 00:10:12;;;;;;;53.63;48.25;;;;;;;7.17;100.00;100458.00;5032887;28;20111;-78
2023/02/27 00:12:40;;;;;;;57.88;52.47;;;;;;;7.04;100.00;100466.59;5032890;28;20434;-77
2023/02/27 00:15:10;;;;;;;52.42;47.40;;;;;;;7.30;100.00;100463.38;5032551;28;20127;-77
2023/02/27 00:17:37;;;;;;;51.58;46.85;;;;;;;6.92;100.00;100467.28;5032861;28;20103;-77
2023/02/27 00:20:04;;;;;;;56.20;49.75;;;;;;;6.94;100.00;100465.28;5032720;28;20107;-78
2023/02/27 00:22:31;;;;;;;55.50;50.13;;;;;;;6.84;100.00;100465.59;5032821;28;20049;-78
2023/02/27 00:24:57;;;;;;;49.83;44.95;;;;;;;6.76;100.00;100465.72;5032390;28;20503;-78
2023/02/27 00:27:24;;;;;;;51.63;46.60;;;;;;;6.62;100.00;100460.28;5032577;28;20050;-77
2023/02/27 00:29:51;;;;;;;53.15;48.25;;;;;;;6.25;100.00;100453.34;5032818;28;20056;-77
2023/02/27 00:32:19;;;;;;;60.72;54.88;;;;;;;6.24;100.00;100451.72;5032344;28;20407;-78
2023/02/27 00:34:46;;;;;;;54.10;48.50;;;;;;;6.10;100.00;100460.47;5032206;28;20473;-77
2023/02/27 00:37:13;;;;;;;52.90;47.45;;;;;;;6.25;100.00;100456.00;5032794;28;20080;-77
2023/02/27 00:39:39;;;;;;;59.90;54.15;;;;;;;6.18;100.00;100463.00;5032418;28;20057;-78
2023/02/27 00:42:06;;;;;;;61.60;56.00;;;;;;;6.06;100.00;100465.28;5032443;28;20116;-77
2023/02/27 00:44:33;;;;;;;64.47;57.60;;;;;;;6.23;100.00;100465.88;5032160;28;20107;-77
2023/02/27 00:47:00;;;;;;;53.45;48.15;;;;;;;5.97;100.00;100464.56;5032335;28;20107;-77
2023/02/27 00:49:28;;;;;;;131.20;85.32;;;;;;;6.08;100.00;100465.94;5032094;28;20104;-77
2023/02/27 00:51:55;;;;;;;83.25;62.72;;;;;;;5.91;100.00;100461.78;5032375;28;20049;-77
2023/02/27 00:54:21;;;;;;;72.40;61.75;;;;;;;5.85;100.00;100454.63;5032014;28;20111;-77
2023/02/27 00:56:48;;;;;;;69.43;61.85;;;;;;;5.81;100.00;100456.81;5032424;28;20103;-77
2023/02/27 00:59:15;;;;;;;57.53;51.35;;;;;;;5.82;100.00;100458.44;5032372;28;20412;-77
2023/02/27 01:01:43;;;;;;;55.65;50.10;;;;;;;5.89;100.00;100461.97;5032107;28;20045;-78
2023/02/27 01:04:10;;;;;;;56.70;50.97;;;;;;;5.90;100.00;100455.72;5032160;28;20062;-77
2023/02/27 01:06:38;;;;;;;62.17;56.17;;;;;;;5.75;100.00;100441.72;5032208;28;20111;-77
2023/02/27 01:09:05;;;;;;;54.67;49.10;;;;;;;5.74;100.00;100432.97;5031725;28;20188;-77
2023/02/27 01:11:32;;;;;;;64.90;54.90;;;;;;;6.03;100.00;100439.28;5032310;28;20053;-77
2023/02/27 01:13:59;;;;;;;71.53;64.75;;;;;;;5.71;100.00;100451.78;5032109;28;20054;-77
2023/02/27 01:16:25;;;;;;;61.30;53.45;;;;;;;5.61;100.00;100451.22;5031783;28;20057;-77
2023/02/27 01:18:52;;;;;;;111.60;69.40;;;;;;;5.70;100.00;100457.25;5032220;28;20046;-77
2023/02/27 01:21:19;;;;;;;55.30;49.33;;;;;;;5.62;100.00;100463.38;5032075;28;20123;-77
2023/02/27 01:23:47;;;;;;;62.55;56.05;;;;;;;5.62;100.00;100458.13;5032098;28;20112;-77
2023/02/27 01:26:14;;;;;;;62.25;56.75;;;;;;;6.00;100.00;100465.19;5032045;28;20045;-77
2023/02/27 01:28:40;;;;;;;56.25;51.28;;;;;;;5.41;100.00;100452.72;5031747;28;20049;-77
2023/02/27 01:31:08;;;;;;;63.33;57.45;;;;;;;5.43;100.00;100438.38;5032075;28;20399;-77
2023/02/27 01:33:34;;;;;;;52.85;47.15;;;;;;;5.40;100.00;100449.28;5031703;28;20049;-77
2023/02/27 01:36:01;;;;;;;63.17;56.28;;;;;;;5.46;100.00;100464.38;5031584;28;20054;-77
2023/02/27 01:38:28;;;;;;;56.15;50.97;;;;;;;5.63;100.00;100470.31;5031703;28;20049;-77
2023/02/27 01:40:56;;;;;;;57.72;52.25;;;;;;;5.81;100.00;100482.31;5031969;28;20050;-77
2023/02/27 01:43:23;;;;;;;142.98;95.40;;;;;;;5.56;100.00;100487.00;5031832;28;20053;-77
2023/02/27 01:45:50;;;;;;;80.80;65.40;;;;;;;5.54;100.00;100483.72;5033737;28;20049;-77
2023/02/27 01:48:22;;;;;;;78.10;60.72;;;;;;;5.60;100.00;100475.94;5035007;28;20099;-77
2023/02/27 01:50:53;;;;;;;61.10;54.73;;;;;;;5.65;100.00;100473.56;5035126;28;20045;-77
2023/02/27 01:53:23;;;;;;;67.32;61.42;;;;;;;5.23;100.00;100474.94;5035255;28;20292;-77
2023/02/27 01:55:51;;;;;;;74.03;55.00;;;;;;;5.39;100.00;100484.53;5034911;28;20107;-77
2023/02/27 01:58:19;;;;;;;58.67;52.65;;;;;;;5.65;100.00;100478.84;5034912;28;20049;-77
2023/02/27 02:00:46;;;;;;;149.02;87.22;;;;;;;5.37;100.00;100472.53;5034908;28;20053;-77
2023/02/27 02:03:20;;;;;;;51.72;46.25;;;;;;;5.52;100.00;100470.75;5034746;28;20045;-77
2023/02/27 02:05:47;;;;;;;62.38;57.10;;;;;;;5.30;100.00;100482.16;5035262;28;20049;-77
2023/02/27 02:08:17;;;;;;;51.15;46.42;;;;;;;5.28;100.00;100492.84;5034723;28;20049;-77
2023/02/27 02:10:45;;;;;;;59.45;53.83;;;;;;;5.18;100.00;100495.72;5035078;28;20045;-77
2023/02/27 02:13:12;;;;;;;54.15;48.88;;;;;;;5.16;100.00;100494.25;5034585;28;20049;-77
2023/02/27 02:15:48;;;;;;;57.38;51.92;;;;;;;5.18;100.00;100479.09;5034847;28;20053;-77
2023/02/27 02:18:21;;;;;;;58.47;52.97;;;;;;;5.10;100.00;100492.31;5034750;28;20045;-77
2023/02/27 02:21:43;;;;;;;70.00;64.03;;;;;;;5.39;100.00;100481.91;5034472;28;20561;-77
2023/02/27 02:24:48;;;;;;;65.85;59.65;;;;;;;5.09;100.00;100488.88;5034339;28;20103;-77
2023/02/27 02:27:31;;;;;;;62.35;56.40;;;;;;;5.22;100.00;100485.66;5034702;28;20049;-77
2023/02/27 02:30:30;;;;;;;62.15;56.22;;;;;;;5.00;100.00;100495.19;5034662;28;20099;-77
2023/02/27 02:33:23;;;;;;;57.13;51.45;;;;;;;5.22;100.00;100499.63;5034360;28;20589;-77
2023/02/27 02:36:28;;;;;;;64.00;58.10;;;;;;;5.29;100.00;100502.38;5034446;28;20115;-77
2023/02/27 02:39:36;;;;;;;58.28;52.88;;;;;;;5.45;100.00;100520.69;5034152;28;20103;-77
2023/02/27 02:42:10;;;;;;;49.00;44.08;;;;;;;5.01;100.00;100528.41;5006988;28;20481;-77
2023/02/27 02:44:44;;;;;;;47.65;42.63;;;;;;;5.14;100.00;100518.09;5033995;28;20474;-77
2023/02/27 02:47:21;;;;;;;54.53;49.00;;;;;;;5.06;100.00;100533.97;5033927;28;20499;-77
2023/02/27 02:49:56;;;;;;;50.42;45.13;;;;;;;5.08;100.00;100518.81;5033813;28;20049;-77
2023/02/27 02:52:31;;;;;;;52.28;47.20;;;;;;;5.35;100.00;100517.47;5034347;28;20049;-77
2023/02/27 02:55:07;;;;;;;53.35;48.17;;;;;;;5.19;100.00;100523.69;5034193;28;20049;-77
2023/02/27 02:57:39;;;;;;;57.00;51.45;;;;;;;5.77;100.00;100531.94;5033805;28;20138;-78
2023/02/27 03:02:51;;;;;;;58.72;53.20;;;;;;;5.21;100.00;100526.16;4799389;22;19999;-78
2023/02/27 03:06:07;;;;;;;58.40;52.97;;;;;;;5.27;100.00;100526.25;5053670;28;20051;-77
2023/02/27 03:08:40;;;;;;;54.53;49.00;;;;;;;5.36;100.00;100528.84;5036084;28;20115;-77
2023/02/27 03:11:08;;;;;;;67.05;60.78;;;;;;;5.97;100.00;100524.38;5033425;28;20057;-77
2023/02/27 03:13:41;;;;;;;59.75;54.20;;;;;;;5.38;100.00;100535.53;5033798;28;20391;-77
2023/02/27 03:16:15;;;;;;;67.65;61.95;;;;;;;5.27;100.00;100549.16;5033582;28;20480;-78
2023/02/27 03:18:49;;;;;;;71.03;64.80;;;;;;;5.65;100.00;100551.81;5033721;28;20050;-77
2023/02/27 03:21:22;;;;;;;68.55;61.92;;;;;;;5.60;100.00;100554.16;5033456;28;20049;-77
2023/02/27 03:23:54;;;;;;;62.53;56.60;;;;;;;5.49;100.00;100558.84;5033137;28;20053;-77
2023/02/27 03:26:30;;;;;;;59.13;53.22;;;;;;;5.43;100.00;100558.75;5033352;28;20053;-77
2023/02/27 03:29:00;;;;;;;54.95;49.72;;;;;;;4.98;100.00;100561.16;5033327;28;20111;-77
2023/02/27 03:31:42;;;;;;;74.82;67.68;;;;;;;4.85;100.00;100552.19;5033342;28;20123;-77
2023/02/27 03:34:17;;;;;;;58.10;51.78;;;;;;;5.03;100.00;100544.84;5033276;28;20045;-78
2023/02/27 03:36:50;;;;;;;50.67;45.42;;;;;;;5.05;100.00;100567.38;5033110;28;20103;-77
2023/02/27 03:39:24;;;;;;;54.35;48.33;;;;;;;4.98;100.00;100568.25;5032860;28;20049;-77
2023/02/27 03:41:58;;;;;;;52.45;46.95;;;;;;;4.90;100.00;100578.78;5032709;28;20041;-77
2023/02/27 03:44:31;;;;;;;52.10;46.63;;;;;;;5.18;100.00;100561.53;5033416;28;20049;-77
2023/02/27 03:46:58;;;;;;;57.17;51.55;;;;;;;5.05;100.00;100572.66;5033647;28;20135;-77
2023/02/27 03:49:25;;;;;;;54.13;46.30;;;;;;;4.89;100.00;100575.34;5032934;28;20068;-77
2023/02/27 03:51:52;;;;;;;54.88;49.15;;;;;;;4.96;100.00;100586.84;5032565;28;20057;-77
2023/02/27 03:54:22;;;;;;;53.38;42.30;;;;;;;5.19;100.00;100586.06;5032685;28;20111;-77
2023/02/27 03:56:55;;;;;;;50.45;43.50;;;;;;;5.03;100.00;100592.25;5032725;28;20541;-77
2023/02/27 03:59:24;;;;;;;56.17;49.83;;;;;;;4.80;100.00;100590.34;5032576;28;20045;-77
2023/02/27 04:01:53;;;;;;;57.08;48.53;;;;;;;5.32;100.00;100586.28;5032388;28;20095;-77
2023/02/27 04:04:19;;;;;;;58.20;51.88;;;;;;;5.30;100.00;100588.31;5032538;28;20095;-78
2023/02/27 04:09:50;;;;;;;67.28;60.30;;;;;;;4.93;100.00;100626.69;5051672;28;20048;-77
2023/02/27 04:12:41;;;;;;;58.65;48.25;;;;;;;4.78;100.00;100634.47;5052267;28;20590;-77
2023/02/27 04:15:18;;;;;;;59.70;48.92;;;;;;;5.12;100.00;100645.69;5052474;28;20052;-77
2023/02/27 04:17:56;;;;;;;53.58;44.97;;;;;;;5.32;100.00;100651.31;5052149;28;20048;-77
2023/02/27 04:20:35;;;;;;;57.47;51.25;;;;;;;4.82;100.00;100654.16;5052202;28;20502;-78
2023/02/27 04:23:06;;;;;;;54.58;46.80;;;;;;;4.98;100.00;100655.91;5052332;28;20048;-77
2023/02/27 04:25:43;;;;;;;55.20;44.45;;;;;;;5.00;100.00;100650.50;5052225;28;20102;-78
2023/02/27 04:28:17;;;;;;;58.80;52.55;;;;;;;5.34;100.00;100676.50;5052025;28;20103;-78
2023/02/27 04:30:57;;;;;;;53.15;46.42;;;;;;;5.11;100.00;100679.06;5052130;28;20178;-78
2023/02/27 04:33:31;;;;;;;59.20;50.85;;;;;;;4.79;100.00;100687.91;5052380;28;20110;-77
2023/02/27 04:36:02;;;;;;;58.20;49.35;;;;;;;4.98;100.00;100692.78;5052208;28;20126;-77
2023/02/27 04:38:35;;;;;;;66.65;52.45;;;;;;;4.83;100.00;100687.38;5052185;28;20114;-77
2023/02/27 04:41:05;;;;;;;;;;;;;;;4.98;100.00;100684.88;5052683;28;20049;-77
2023/02/27 04:43:34;;;;;;;72.93;65.53;;;;;;;5.18;100.00;100673.94;5052156;28;20380;-77
2023/02/27 04:46:05;;;;;;;61.83;49.35;;;;;;;6.22;100.00;100669.16;5052133;28;20106;-77
2023/02/27 04:48:37;;;;;;;58.58;50.08;;;;;;;5.42;100.00;100676.47;5051776;28;20102;-78
2023/02/27 04:51:10;;;;;;;60.88;51.22;;;;;;;5.03;100.00;100690.47;5052178;28;20103;-77
2023/02/27 04:53:45;;;;;;;68.75;55.35;;;;;;;5.45;100.00;100678.75;5052056;28;20049;-77
2023/02/27 04:56:15;;;;;;;60.65;47.75;;;;;;;5.15;100.00;100676.94;5052145;28;20041;-77
2023/02/27 04:58:49;;;;;;;62.95;54.42;;;;;;;4.80;100.00;100689.53;5051764;28;20115;-77
2023/02/27 05:01:21;;;;;;;60.92;50.40;;;;;;;4.72;100.00;100684.28;5051825;28;20425;-77
2023/02/27 05:03:49;;;;;;;59.05;51.53;;;;;;;4.73;100.00;100678.06;5051163;28;20490;-77
2023/02/27 05:06:19;;;;;;;63.08;45.05;;;;;;;4.78;100.00;100689.72;5052095;28;20049;-77
2023/02/27 05:08:57;;;;;;;62.05;42.92;;;;;;;4.89;100.00;100720.09;5051573;28;20497;-77
2023/02/27 05:11:28;;;;;;;62.60;40.55;;;;;;;4.76;100.00;100730.34;5050260;28;20490;-78
2023/02/27 05:13:58;;;;;;;59.22;39.75;;;;;;;4.92;100.00;100751.34;5051516;28;20102;-77
2023/02/27 05:16:33;;;;;;;58.92;36.17;;;;;;;4.73;100.00;100785.94;5051580;28;20064;-77
2023/02/27 05:19:01;;;;;;;57.88;40.13;;;;;;;4.72;100.00;100823.75;5052613;28;20053;-77
2023/02/27 05:21:34;;;;;;;53.50;38.22;;;;;;;4.67;100.00;100821.63;5055596;28;20053;-78
2023/02/27 05:24:09;;;;;;;;;;;;;;;4.70;100.00;100865.22;5055848;28;20052;-77
2023/02/27 05:26:50;;;;;;;51.35;36.63;;;;;;;4.88;100.00;100889.56;5055674;28;20007;-77
2023/02/27 05:29:28;;;;;;;52.97;36.80;;;;;;;4.88;100.00;100925.59;5055365;28;20118;-77
2023/02/27 05:32:04;;;;;;;49.92;36.65;;;;;;;5.03;100.00;100952.91;5055430;28;20436;-77
2023/02/27 05:34:37;;;;;;;57.38;37.30;;;;;;;4.69;100.00;100988.06;5055543;28;20103;-77
2023/02/27 05:37:10;;;;;;;52.75;37.50;;;;;;;5.07;100.00;100988.44;5055490;28;20052;-77
2023/02/27 05:39:40;;;;;;;50.28;36.85;;;;;;;4.95;100.00;100992.38;5055204;28;20103;-77
2023/02/27 05:42:13;;;;;;;56.88;37.38;;;;;;;4.90;100.00;100992.88;5055106;28;20472;-77
2023/02/27 05:44:44;;;;;;;57.15;36.55;;;;;;;5.25;100.00;101012.00;5055582;28;20507;-77
2023/02/27 05:47:16;;;;;;;49.60;35.90;;;;;;;5.13;100.00;101006.22;5055128;28;20098;-77
2023/02/27 05:49:47;;;;;;;60.13;36.95;;;;;;;5.19;100.00;101008.19;5055152;28;20482;-77
2023/02/27 05:52:18;;;;;;;57.65;37.70;;;;;;;5.23;100.00;101004.28;5054940;28;20592;-78
2023/02/27 05:54:52;;;;;;;52.05;35.30;;;;;;;5.31;100.00;100992.09;5055375;28;20074;-77
2023/02/27 05:57:24;;;;;;;47.65;34.22;;;;;;;5.32;100.00;100994.53;5054663;28;20049;-78
2023/02/27 05:59:57;;;;;;;44.83;34.00;;;;;;;5.30;100.00;101000.97;5055190;28;20468;-77
2023/02/27 06:02:26;;;;;;;50.97;39.60;;;;;;;5.65;100.00;100997.16;5054641;28;20106;-77
2023/02/27 06:04:52;;;;;;;48.13;37.10;;;;;;;5.64;100.00;101000.78;5054571;28;20582;-77
2023/02/27 06:07:19;;;;;;;62.95;48.92;;;;;;;5.72;100.00;101000.78;5054803;28;20106;-77
2023/02/27 06:09:47;;;;;;;51.15;38.15;;;;;;;5.88;100.00;101008.66;5054400;28;20049;-77
2023/02/27 06:12:13;;;;;;;50.13;34.08;;;;;;;5.54;100.00;101019.41;5054778;28;20052;-78
2023/02/27 06:14:40;;;;;;;54.47;37.00;;;;;;;5.44;100.00;101018.75;5054493;28;20095;-77
2023/02/27 06:17:07;;;;;;;53.03;36.97;;;;;;;5.51;100.00;101036.38;5054769;28;20079;-77
2023/02/27 06:19:35;;;;;;;46.08;34.50;;;;;;;5.40;100.00;101054.31;5054286;28;20048;-77
2023/02/27 06:22:02;;;;;;;53.70;36.03;;;;;;;5.46;100.00;101062.38;5054217;28;20056;-77
2023/02/27 06:24:28;;;;;;;57.72;39.80;;;;;;;5.46;100.00;101043.94;5054465;28;20049;-77
2023/02/27 06:26:55;;;;;;;58.15;36.88;;;;;;;5.59;100.00;101039.97;5054069;28;20049;-78
2023/02/27 06:29:22;;;;;;;48.58;35.13;;;;;;;5.77;100.00;101026.63;5054287;28;20041;-78
2023/02/27 06:31:49;;;;;;;51.72;35.78;;;;;;;6.01;100.00;101041.63;5053467;28;20399;-78
2023/02/27 06:34:15;;;;;;;67.50;40.92;;;;;;;5.97;100.00;101041.13;5054416;28;20049;-78
2023/02/27 06:36:43;;;;;;;52.50;37.78;;;;;;;5.64;100.00;101053.50;5054500;28;20062;-78
2023/02/27 06:39:10;;;;;;;48.25;35.85;;;;;;;5.44;100.00;101061.72;5054241;28;20102;-78
2023/02/27 06:41:37;;;;;;;50.33;37.17;;;;;;;5.49;100.00;101063.88;5054180;28;20076;-77
2023/02/27 06:44:04;;;;;;;50.38;35.72;;;;;;;5.86;100.00;101065.16;5054157;28;20410;-77
2023/02/27 06:46:31;;;;;;;48.08;37.15;;;;;;;5.79;100.00;101067.66;5054174;28;20057;-78
2023/02/27 06:48:57;;;;;;;52.55;36.08;;;;;;;5.74;100.00;101068.13;5053800;28;20110;-78
2023/02/27 06:51:24;;;;;;;57.85;37.00;;;;;;;5.44;100.00;101076.69;5054175;28;20049;-78
2023/02/27 06:53:52;;;;;;;54.10;36.45;;;;;;;5.46;100.00;101072.09;5053880;28;20185;-78
2023/02/27 06:56:19;;;;;;;55.17;38.75;;;;;;;5.32;100.00;101064.84;5053740;28;20086;-78
2023/02/27 06:58:46;;;;;;;61.78;42.08;;;;;;;5.33;100.00;101077.03;5053891;28;20231;-78
2023/02/27 07:01:13;;;;;;;59.58;39.55;;;;;;;5.18;100.00;101076.84;5053342;28;20057;-78
2023/02/27 07:03:40;;;;;;;55.95;38.20;;;;;;;5.44;100.00;101081.97;5053886;28;20060;-77
2023/02/27 07:06:07;;;;;;;56.97;42.00;;;;;;;5.56;100.00;101085.94;5053574;28;20053;-78
2023/02/27 07:08:34;;;;;;;71.18;44.17;;;;;;;5.46;100.00;101112.44;5053797;28;20053;-78
2023/02/27 07:11:03;;;;;;;64.07;40.22;;;;;;;5.49;100.00;101138.47;5053476;28;20041;-78
2023/02/27 07:13:29;;;;;;;70.80;46.72;;;;;;;5.59;100.00;101158.56;5053559;28;20135;-77
2023/02/27 07:15:56;;;;;;;66.72;46.47;;;;;;;5.47;100.00;101164.13;5053839;28;20419;-78
2023/02/27 07:18:24;;;;;;;60.92;40.28;;;;;;;5.45;100.00;101162.66;5053472;28;20052;-78
2023/02/27 07:20:51;;;;;;;62.53;40.35;;;;;;;5.86;100.00;101174.06;5053534;28;20052;-78
2023/02/27 07:23:18;;;;;;;55.50;42.22;;;;;;;5.94;100.00;101166.22;5053298;28;20052;-78
2023/02/27 07:25:46;;;;;;;62.03;42.50;;;;;;;5.55;100.00;101168.59;5053240;28;20080;-77
2023/02/27 07:28:15;;;;;;;60.70;42.83;;;;;;;5.64;100.00;101169.44;5053075;28;20045;-78
2023/02/27 07:30:42;;;;;;;57.35;40.35;;;;;;;5.54;100.00;101172.25;5052942;28;20098;-77
2023/02/27 07:33:09;;;;;;;52.30;39.92;;;;;;;5.73;100.00;101176.38;5052909;28;20111;-77
2023/02/27 07:35:37;;;;;;;55.17;41.25;;;;;;;5.62;100.00;101171.41;5052871;28;20052;-77
2023/02/27 07:38:03;;;;;;;53.55;41.55;;;;;;;5.58;100.00;101163.00;5053093;28;20103;-77
2023/02/27 07:40:30;;;;;;;59.67;40.92;;;;;;;5.71;100.00;101160.72;5053019;28;20110;-77
2023/02/27 07:42:57;;;;;;;61.97;42.00;;;;;;;5.87;100.00;101145.91;5053241;28;20223;-77
2023/02/27 07:45:25;;;;;;;55.95;41.25;;;;;;;6.06;100.00;101137.69;5052719;28;20053;-77
2023/02/27 07:47:52;;;;;;;57.83;40.10;;;;;;;5.97;100.00;101144.78;5053002;28;20106;-78
2023/02/27 07:50:18;;;;;;;54.35;39.55;;;;;;;6.26;100.00;101142.63;5053006;28;20123;-78
2023/02/27 07:52:45;;;;;;;50.38;36.78;;;;;;;6.56;100.00;101133.16;5052548;28;20106;-78
2023/02/27 07:55:13;;;;;;;55.03;39.22;;;;;;;5.90;100.00;101133.22;5053156;28;20056;-78
2023/02/27 07:57:40;;;;;;;54.83;39.15;;;;;;;6.19;100.00;101139.81;5052445;28;20514;-78
2023/02/27 08:00:09;;;;;;;57.13;39.33;;;;;;;6.23;100.00;101142.94;5052346;28;20057;-78
2023/02/27 08:02:37;;;;;;;57.92;37.95;;;;;;;5.75;100.00;101163.88;5052286;28;20141;-77
2023/02/27 08:05:05;;;;;;;53.28;40.17;;;;;;;5.91;100.00;101168.31;5052388;28;20464;-77
2023/02/27 08:07:31;;;;;;;60.92;41.53;;;;;;;6.27;100.00;101176.75;5052429;28;20053;-77
2023/02/27 08:09:58;;;;;;;58.95;41.55;;;;;;;5.78;100.00;101192.53;5052554;28;20103;-77
2023/02/27 08:12:26;;;;;;;61.25;43.20;;;;;;;5.93;100.00;101201.50;5052541;28;20056;-78
2023/02/27 08:14:53;;;;;;;60.53;43.60;;;;;;;6.39;100.00;101225.56;5052259;28;20053;-78
2023/02/27 08:17:19;;;;;;;55.85;41.78;;;;;;;6.08;100.00;101230.66;5052450;28;20049;-78
2023/02/27 08:19:47;;;;;;;54.45;39.03;;;;;;;6.74;100.00;101217.41;5052410;28;20049;-78
2023/02/27 08:22:14;;;;;;;56.80;40.17;;;;;;;6.39;100.00;101209.72;5052509;28;20477;-78
2023/02/27 08:24:41;;;;;;;60.40;45.42;;;;;;;6.25;100.00;101215.66;5052537;28;20426;-78
2023/02/27 08:27:08;;;;;;;52.90;43.22;;;;;;;6.38;100.00;101221.28;5052202;28;20106;-78
2023/02/27 08:29:34;;;;;;;51.55;39.88;;;;;;;6.63;100.00;101231.81;5051989;28;20480;-77
2023/02/27 08:32:03;;;;;;;53.42;42.58;;;;;;;6.34;100.00;101243.69;5052037;28;20049;-78
2023/02/27 08:34:30;;;;;;;54.42;40.30;;;;;;;6.62;100.00;101233.59;5052231;28;20056;-78
2023/02/27 08:36:58;;;;;;;52.65;41.22;;;;;;;6.54;100.00;101235.44;5052154;28;20497;-78
2023/02/27 08:39:25;;;;;;;55.88;41.47;;;;;;;6.39;100.00;101249.31;5051909;28;20490;-78
2023/02/27 08:41:52;;;;;;;55.45;42.92;;;;;;;6.54;100.00;101264.47;5052172;28;20053;-78
2023/02/27 08:44:19;;;;;;;58.80;45.70;;;;;;;6.30;100.00;101276.69;5052318;28;20056;-78
2023/02/27 08:46:46;;;;;;;58.95;43.28;;;;;;;6.40;100.00;101273.88;5052333;28;20056;-78
2023/02/27 08:49:12;;;;;;;60.35;47.90;;;;;;;6.49;100.00;101266.78;5051845;28;20102;-78
2023/02/27 08:51:39;;;;;;;61.13;45.25;;;;;;;6.56;100.00;101275.66;5052118;28;20049;-78
2023/02/27 08:54:07;;;;;;;59.00;42.47;;;;;;;6.66;100.00;101273.72;5052719;28;20569;-78
2023/02/27 08:56:34;;;;;;;56.45;43.53;;;;;;;6.43;100.00;101282.28;5056119;28;20045;-77
2023/02/27 08:59:01;;;;;;;56.80;45.40;;;;;;;6.56;100.00;101284.41;5055732;28;20057;-78
2023/02/27 09:01:30;;;;;;;57.08;44.92;;;;;;;6.61;100.00;101290.03;5055883;28;20052;-78
2023/02/27 09:03:57;;;;;;;60.63;44.42;;;;;;;6.86;100.00;101279.44;5056294;28;20045;-78
2023/02/27 09:06:24;;;;;;;60.65;44.25;;;;;;;6.97;100.00;101284.38;5056371;28;20122;-78
2023/02/27 09:08:50;;;;;;;64.80;46.72;;;;;;;7.30;100.00;101290.41;5055887;28;20403;-78
2023/02/27 09:11:18;;;;;;;61.10;46.38;;;;;;;7.00;100.00;101301.72;5056017;28;20041;-77
2023/02/27 09:13:45;;;;;;;64.00;50.65;;;;;;;6.93;100.00;101316.56;5056167;28;20067;-78
2023/02/27 09:16:12;;;;;;;58.78;43.40;;;;;;;6.72;100.00;101317.06;5055839;28;20111;-78
2023/02/27 09:18:39;;;;;;;60.28;42.78;;;;;;;6.96;100.00;101330.28;5055545;28;20052;-78
2023/02/27 09:21:06;;;;;;;56.03;43.30;;;;;;;6.87;100.00;101332.09;5053654;28;20060;-78
2023/02/27 09:23:32;;;;;;;52.00;39.90;;;;;;;6.86;100.00;101326.97;5045278;28;20041;-78
2023/02/27 09:25:59;;;;;;;57.60;44.22;;;;;;;6.98;100.00;101325.63;5055457;28;20079;-77
2023/02/27 09:28:27;;;;;;;56.15;42.40;;;;;;;7.05;100.00;101328.41;5055295;28;20053;-78
2023/02/27 09:30:54;;;;;;;53.05;40.92;;;;;;;6.93;100.00;101327.13;5055210;28;20067;-78
2023/02/27 09:33:21;;;;;;;56.40;42.20;;;;;;;7.00;100.00;101326.31;5055172;28;20048;-78
2023/02/27 09:35:47;;;;;;;55.00;43.50;;;;;;;6.78;100.00;101332.28;5055507;28;20049;-78
2023/02/27 09:38:14;;;;;;;49.38;40.33;;;;;;;6.85;100.00;101328.78;5055600;28;20083;-78
2023/02/27 09:40:43;;;;;;;53.95;45.72;;;;;;;6.82;100.00;101323.03;5055072;28;20052;-78
2023/02/27 09:43:15;;;;;;;52.70;44.75;;;;;;;6.95;100.00;101330.44;5055447;28;20430;-78
2023/02/27 09:45:44;;;;;;;55.83;49.75;;;;;;;7.02;100.00;101332.25;5055047;28;20497;-78
2023/02/27 09:48:16;;;;;;;48.60;42.13;;;;;;;7.14;100.00;101348.56;5055208;28;20049;-78
2023/02/27 09:50:44;;;;;;;50.72;40.03;;;;;;;7.42;100.00;101354.28;5055094;28;20127;-78
2023/02/27 09:53:16;;;;;;;48.05;40.30;;;;;;;7.20;100.00;101360.25;5055110;28;20049;-78
2023/02/27 09:55:45;;;;;;;53.45;44.95;;;;;;;7.29;100.00;101356.63;5054882;28;20103;-78
2023/02/27 09:58:27;;;;;;;50.90;42.22;;;;;;;7.00;100.00;101365.91;5055102;28;20061;-78
2023/02/27 10:01:02;;;;;;;49.08;40.47;;;;;;;7.32;100.00;101372.97;5054874;28;20483;-78
2023/02/27 10:03:47;;;;;;;49.13;41.20;;;;;;;7.27;100.00;101377.94;5054636;28;20509;-78
2023/02/27 10:06:22;;;;;;;51.95;41.85;;;;;;;6.93;100.00;101374.66;5053497;28;20456;-77
2023/02/27 10:09:04;;;;;;;50.00;41.72;;;;;;;7.62;100.00;101373.22;5055023;28;20498;-78
2023/02/27 10:11:38;;;;;;;50.78;45.22;;;;;;;7.55;100.00;101374.91;5054706;28;20110;-78
2023/02/27 10:14:15;;;;;;;52.05;42.75;;;;;;;7.79;100.00;101379.28;5055201;28;20122;-78
2023/02/27 10:16:43;;;;;;;50.80;45.10;;;;;;;7.68;100.00;101383.09;5055095;28;20102;-78
2023/02/27 10:19:16;;;;;;;47.70;40.08;;;;;;;7.36;100.00;101391.16;5054745;28;20126;-78
2023/02/27 10:21:48;;;;;;;52.88;42.67;;;;;;;7.56;100.00;101392.41;5054278;28;20055;-78
2023/02/27 10:24:23;;;;;;;56.60;44.47;;;;;;;7.66;100.00;101397.50;5054720;28;20087;-78
2023/02/27 10:26:52;;;;;;;53.83;46.03;;;;;;;7.23;100.00;101400.41;5054572;28;20044;-78
2023/02/27 10:29:29;;;;;;;50.15;41.72;;;;;;;7.25;100.00;101397.59;5054259;28;20053;-78
2023/02/27 10:32:02;;;;;;;46.17;36.10;;;;;;;7.28;100.00;101395.44;5055078;28;20480;-78
2023/02/27 10:34:30;;;;;;;51.05;40.90;;;;;;;7.78;100.00;101389.03;5054309;28;20099;-78
2023/02/27 10:37:01;;;;;;;50.95;42.47;;;;;;;7.94;100.00;101392.59;5054615;28;20118;-78
2023/02/27 10:39:29;;;;;;;48.35;40.40;;;;;;;7.80;100.00;101396.78;5054392;28;20053;-78
2023/02/27 10:42:07;;;;;;;52.38;42.40;;;;;;;7.82;100.00;101384.22;5054586;28;20084;-78
2023/02/27 10:44:34;;;;;;;54.22;44.30;;;;;;;7.70;100.00;101390.88;5054276;28;20049;-78
2023/02/27 10:47:02;;;;;;;53.88;43.92;;;;;;;7.97;100.00;101384.34;5053916;28;20501;-78
2023/02/27 10:49:31;;;;;;;54.88;44.35;;;;;;;8.06;100.00;101390.41;5054469;28;20111;-78
2023/02/27 10:52:07;;;;;;;57.47;44.55;;;;;;;8.13;100.00;101388.72;5053770;28;20052;-78
2023/02/27 10:54:34;;;;;;;57.83;47.50;;;;;;;7.90;100.00;101399.25;5054155;28;20107;-78
2023/02/27 10:57:02;;;;;;;57.00;45.40;;;;;;;8.09;100.00;101388.25;5054122;28;20056;-78
2023/02/27 10:59:32;;;;;;;57.58;45.72;;;;;;;8.03;100.00;101378.34;5054104;28;20057;-78
2023/02/27 11:02:03;;;;;;;54.15;46.45;;;;;;;8.61;100.00;101374.38;5053832;28;20087;-78
2023/02/27 11:04:33;;;;;;;51.60;41.28;;;;;;;8.57;100.00;101377.56;5054043;28;20418;-78
2023/02/27 11:07:03;;;;;;;54.65;46.55;;;;;;;8.91;100.00;101383.25;5053981;28;20044;-78
2023/02/27 11:09:32;;;;;;;49.45;43.83;;;;;;;9.48;100.00;101381.06;5054060;28;20109;-78
2023/02/27 11:12:11;;;;;;;46.90;41.90;;;;;;;11.40;100.00;101382.22;5053341;28;20514;-78
2023/02/27 11:14:49;;;;;;;43.63;40.05;;;;;;;10.59;100.00;101371.16;5054578;28;20049;-78
2023/02/27 11:17:27;;;;;;;47.03;43.00;;;;;;;10.26;100.00;101369.84;5053670;28;20114;-78
2023/02/27 11:19:54;;;;;;;43.75;39.65;;;;;;;10.52;100.00;101358.63;5053786;28;20102;-78
2023/02/27 11:22:23;;;;;;;49.60;44.45;;;;;;;11.38;100.00;101360.34;5054383;28;20049;-78
2023/02/27 11:24:51;;;;;;;45.80;41.08;;;;;;;11.15;100.00;101363.25;5054093;28;20053;-78
2023/02/27 11:27:21;;;;;;;43.28;39.28;;;;;;;10.45;100.00;101359.59;5054227;28;20481;-78
2023/02/27 11:29:57;;;;;;;39.72;35.67;;;;;;;12.12;100.00;101371.16;5053837;28;20140;-78